Terminal Aerodrome Forecast
Issued by NWS

Home | Current Version | Previous Version | Text Only | Print | Product List | Glossary On
Versions: 1 2 3 4 5 6 7 8 9 10 11 12
000
FTUS42 KTBW 231700
TAFLAL
TAF
KLAL 231736Z 2318/2418 06010KT P6SM FEW250
     FM240200 04004KT P6SM FEW250
     FM241400 04010KT P6SM FEW250=

USA.gov is the U.S. government's official web portal to all federal, state and local government web resources and services.